Time;durP1;ratioP1;P1;durP2;ratioP2;P2;SDS_P1;SDS_P2;PMS_P1;PMS_P2;Temp;Humidity;BMP_temperature;BMP_pressure;BME280_temperature;BME280_humidity;BME280_pressure;Samples;Min_cycle;Max_cycle;Signal;HPM_P1;HPM_P2
2022/03/19 00:00:23;;;;;;;12.80;2.60;;;5.10;99.90;;;;;;5101312;27;20052;-71
2022/03/19 00:02:48;;;;;;;16.02;2.30;;;5.00;99.90;;;;;;5102666;27;20043;-71
2022/03/19 00:05:14;;;;;;;15.57;2.25;;;4.90;99.90;;;;;;5103659;27;20046;-71
2022/03/19 00:07:40;;;;;;;14.32;2.92;;;4.90;99.90;;;;;;5099980;27;20130;-71
2022/03/19 00:10:08;;;;;;;11.07;2.03;;;4.80;99.90;;;;;;5098415;28;20057;-71
2022/03/19 00:12:35;;;;;;;13.45;2.42;;;4.80;99.90;;;;;;5101914;28;20065;-72
2022/03/19 00:15:01;;;;;;;12.02;1.85;;;4.70;99.90;;;;;;5102018;28;20024;-72
2022/03/19 00:17:26;;;;;;;12.00;2.50;;;4.80;99.90;;;;;;5107341;27;20027;-71
2022/03/19 00:19:52;;;;;;;10.20;1.85;;;4.70;99.90;;;;;;5102703;28;20043;-71
2022/03/19 00:22:18;;;;;;;13.23;2.58;;;4.70;99.90;;;;;;5100928;28;20035;-71
2022/03/19 00:24:43;;;;;;;11.00;2.05;;;4.70;99.90;;;;;;5086068;27;20469;-72
2022/03/19 00:27:09;;;;;;;12.82;2.10;;;4.70;99.90;;;;;;5099080;27;20047;-71
2022/03/19 00:29:35;;;;;;;13.10;2.08;;;4.70;99.90;;;;;;5101042;27;20043;-71
2022/03/19 00:32:00;;;;;;;15.05;2.50;;;4.60;99.90;;;;;;5103713;27;20160;-72
2022/03/19 00:34:26;;;;;;;13.50;2.30;;;4.60;99.90;;;;;;5104843;27;20039;-71
2022/03/19 00:36:53;;;;;;;16.83;2.22;;;4.50;99.90;;;;;;5100725;28;20107;-71
2022/03/19 00:39:18;;;;;;;10.48;1.90;;;4.50;99.90;;;;;;5101863;28;20185;-71
2022/03/19 00:41:44;;;;;;;17.23;2.28;;;4.40;99.90;;;;;;5102604;28;20127;-71
2022/03/19 00:44:09;;;;;;;15.30;2.25;;;4.40;99.90;;;;;;5101740;28;20112;-71
2022/03/19 00:46:35;;;;;;;13.90;2.85;;;4.40;99.90;;;;;;5100293;28;20043;-71
2022/03/19 00:49:01;;;;;;;14.68;2.58;;;4.40;99.90;;;;;;5099539;27;20420;-71
2022/03/19 00:51:26;;;;;;;12.27;2.20;;;4.40;99.90;;;;;;5099251;27;20028;-71
2022/03/19 00:53:52;;;;;;;10.32;2.45;;;4.40;99.90;;;;;;5097817;28;20542;-71
2022/03/19 00:56:18;;;;;;;19.70;2.47;;;4.30;99.90;;;;;;5101834;28;20036;-71
2022/03/19 00:58:44;;;;;;;11.05;1.83;;;4.30;99.90;;;;;;5098168;28;20051;-71
2022/03/19 01:01:09;;;;;;;16.10;2.40;;;4.40;99.90;;;;;;5102988;27;20085;-71
2022/03/19 01:03:35;;;;;;;13.23;2.75;;;4.40;99.90;;;;;;5099236;28;20221;-72
2022/03/19 01:06:00;;;;;;;15.88;2.38;;;4.40;99.90;;;;;;5103773;28;20047;-72
2022/03/19 01:08:26;;;;;;;13.00;2.25;;;4.30;99.90;;;;;;5098179;28;20047;-72
2022/03/19 01:10:52;;;;;;;13.00;2.97;;;4.30;99.90;;;;;;5103359;28;20036;-72
2022/03/19 01:13:18;;;;;;;9.45;2.08;;;4.20;99.90;;;;;;5101435;28;20074;-72
2022/03/19 01:15:44;;;;;;;11.50;2.38;;;4.20;99.90;;;;;;5129661;27;20028;-71
2022/03/19 01:18:09;;;;;;;15.95;2.63;;;4.30;99.90;;;;;;5099870;28;20539;-72
2022/03/19 01:20:35;;;;;;;12.80;2.35;;;4.20;99.90;;;;;;5100803;28;20126;-72
2022/03/19 01:23:01;;;;;;;12.85;2.35;;;4.20;99.90;;;;;;5100581;28;20077;-72
2022/03/19 01:25:27;;;;;;;16.30;2.60;;;4.20;99.90;;;;;;5099271;28;20043;-72
2022/03/19 01:27:53;;;;;;;15.20;2.53;;;4.10;99.90;;;;;;5102120;28;20039;-72
2022/03/19 01:30:21;;;;;;;17.48;2.97;;;4.10;99.90;;;;;;5099201;28;20114;-72
2022/03/19 01:32:47;;;;;;;18.63;2.80;;;4.00;99.90;;;;;;5095999;28;20047;-71
2022/03/19 01:35:15;;;;;;;13.27;2.10;;;4.00;99.90;;;;;;5098210;28;20110;-71
2022/03/19 01:37:42;;;;;;;16.15;3.00;;;4.00;99.90;;;;;;5098080;28;20043;-72
2022/03/19 01:40:10;;;;;;;14.27;2.65;;;3.90;99.90;;;;;;5098668;28;20047;-72
2022/03/19 01:42:41;;;;;;;18.15;4.50;;;4.00;99.90;;;;;;5099119;28;20049;-72
2022/03/19 01:45:15;;;;;;;17.58;2.92;;;3.90;99.90;;;;;;5100100;28;20047;-72
2022/03/19 01:47:41;;;;;;;16.45;3.10;;;3.90;99.90;;;;;;5103360;28;20055;-72
2022/03/19 01:50:08;;;;;;;18.83;2.90;;;3.90;99.90;;;;;;5099494;28;20072;-72
2022/03/19 01:52:34;;;;;;;17.70;4.22;;;3.80;99.90;;;;;;5104620;28;20527;-72
2022/03/19 01:55:01;;;;;;;14.38;2.58;;;3.80;99.90;;;;;;5097037;28;20039;-72
2022/03/19 01:57:30;;;;;;;10.90;2.70;;;3.80;99.90;;;;;;5103899;28;20207;-72
2022/03/19 01:59:57;;;;;;;12.10;2.65;;;3.80;99.90;;;;;;5103959;27;20110;-72
2022/03/19 02:02:25;;;;;;;15.70;2.83;;;3.80;99.90;;;;;;5083409;27;20040;-72
2022/03/19 02:04:52;;;;;;;14.98;3.58;;;3.80;99.90;;;;;;5101996;27;20067;-71
2022/03/19 02:07:18;;;;;;;13.48;2.00;;;3.80;99.90;;;;;;5102040;27;20032;-71
2022/03/19 02:09:44;;;;;;;15.02;2.40;;;3.70;99.90;;;;;;5097559;28;20036;-72
2022/03/19 02:12:10;;;;;;;12.52;2.72;;;3.70;99.90;;;;;;5102250;28;20036;-72
2022/03/19 02:14:38;;;;;;;16.73;3.65;;;3.70;99.90;;;;;;5102822;27;20113;-72
2022/03/19 02:17:05;;;;;;;9.18;2.05;;;3.80;99.90;;;;;;5100388;28;20058;-72
2022/03/19 02:19:31;;;;;;;13.07;2.10;;;3.80;99.90;;;;;;5082392;28;20481;-72
2022/03/19 02:21:57;;;;;;;13.45;2.70;;;3.80;99.90;;;;;;5100865;27;20032;-72
2022/03/19 02:27:07;;;;;;;17.67;2.97;;;3.80;99.90;;;;;;5104212;27;20044;-72
2022/03/19 02:29:33;;;;;;;10.98;2.88;;;3.70;99.90;;;;;;5129236;27;20040;-72
2022/03/19 02:32:03;;;;;;;13.13;2.80;;;3.70;99.90;;;;;;5101865;27;20039;-72
2022/03/19 02:34:29;;;;;;;18.33;3.35;;;3.70;99.90;;;;;;5103640;27;20038;-72
2022/03/19 02:36:55;;;;;;;16.00;3.30;;;3.70;99.90;;;;;;5100373;28;20146;-72
2022/03/19 02:39:28;;;;;;;14.55;2.70;;;3.70;99.90;;;;;;5099637;28;20550;-72
2022/03/19 02:41:55;;;;;;;13.48;2.50;;;3.70;99.90;;;;;;5103327;27;20050;-72
2022/03/19 02:44:22;;;;;;;13.50;3.20;;;3.70;99.90;;;;;;5103026;27;20122;-72
2022/03/19 02:46:50;;;;;;;16.00;2.40;;;3.60;99.90;;;;;;5101809;27;20526;-72
2022/03/19 02:49:17;;;;;;;13.02;2.72;;;3.60;99.90;;;;;;5087886;27;20039;-72
2022/03/19 02:51:44;;;;;;;16.45;3.13;;;3.60;99.90;;;;;;5102078;28;20478;-72
2022/03/19 02:54:12;;;;;;;16.50;3.53;;;3.60;99.90;;;;;;5103400;27;20084;-72
2022/03/19 02:56:39;;;;;;;13.45;2.58;;;3.60;99.90;;;;;;5101390;28;20530;-72
2022/03/19 02:59:21;;;;;;;14.93;3.55;;;3.60;99.90;;;;;;5099860;27;20086;-71
2022/03/19 03:01:48;;;;;;;10.85;3.78;;;3.50;99.90;;;;;;5103800;27;20046;-72
2022/03/19 03:04:14;;;;;;;16.75;3.70;;;3.60;99.90;;;;;;5103799;27;20039;-72
2022/03/19 03:06:41;;;;;;;16.58;3.03;;;3.60;99.90;;;;;;5103589;27;20040;-72
2022/03/19 03:09:08;;;;;;;12.98;2.75;;;3.60;99.90;;;;;;5128613;27;20490;-72
2022/03/19 03:11:36;;;;;;;17.20;3.63;;;3.60;99.90;;;;;;5097533;27;20059;-72
2022/03/19 03:14:06;;;;;;;15.38;2.97;;;3.50;99.90;;;;;;5086156;28;20047;-72
2022/03/19 03:16:32;;;;;;;17.23;3.75;;;3.50;99.90;;;;;;5103699;27;20039;-71
2022/03/19 03:19:02;;;;;;;14.02;3.33;;;3.50;99.90;;;;;;5099461;27;20035;-72
2022/03/19 03:21:28;;;;;;;11.60;3.05;;;3.50;99.90;;;;;;5105007;27;20055;-72
2022/03/19 03:23:54;;;;;;;12.35;3.08;;;3.50;99.90;;;;;;5102742;27;20031;-72
2022/03/19 03:26:20;;;;;;;18.48;3.78;;;3.50;99.90;;;;;;5105249;27;20039;-72
2022/03/19 03:28:46;;;;;;;15.80;3.40;;;3.50;99.90;;;;;;5102636;27;20048;-72
2022/03/19 03:31:12;;;;;;;15.93;2.60;;;3.50;99.90;;;;;;5128269;27;20630;-71
2022/03/19 03:33:37;;;;;;;15.23;2.80;;;3.40;99.90;;;;;;5103715;27;20039;-72
2022/03/19 03:36:03;;;;;;;9.40;2.35;;;3.40;99.90;;;;;;5101569;27;20047;-72
2022/03/19 03:38:29;;;;;;;13.98;3.50;;;3.40;99.90;;;;;;5101776;27;20147;-72
2022/03/19 03:40:55;;;;;;;21.38;3.30;;;3.40;99.90;;;;;;5132233;27;20035;-72
2022/03/19 03:43:21;;;;;;;12.38;2.90;;;3.50;99.90;;;;;;5085836;28;20091;-72
2022/03/19 03:45:47;;;;;;;14.68;3.28;;;3.40;99.90;;;;;;5103784;27;20039;-72
2022/03/19 03:48:12;;;;;;;13.25;3.50;;;3.40;99.90;;;;;;5103039;28;20045;-72
2022/03/19 03:50:39;;;;;;;13.90;2.83;;;3.40;99.90;;;;;;5101193;28;20043;-72
2022/03/19 03:53:05;;;;;;;12.23;2.67;;;3.40;99.90;;;;;;5104377;27;20024;-72
2022/03/19 03:55:33;;;;;;;10.45;2.97;;;3.40;99.90;;;;;;5104543;27;20043;-71
2022/03/19 03:58:03;;;;;;;12.70;2.60;;;3.40;99.90;;;;;;5104223;28;20089;-72
2022/03/19 04:00:30;;;;;;;12.93;2.85;;;3.40;99.90;;;;;;5103434;27;20062;-72
2022/03/19 04:02:56;;;;;;;10.73;3.00;;;3.40;99.90;;;;;;5100421;28;20680;-72
2022/03/19 04:05:21;;;;;;;13.25;2.40;;;3.40;99.90;;;;;;5103946;27;20035;-72
2022/03/19 04:07:47;;;;;;;14.32;3.03;;;3.40;99.90;;;;;;5104461;28;20036;-72
2022/03/19 04:10:13;;;;;;;16.08;3.10;;;3.30;99.90;;;;;;5100548;28;20075;-72
2022/03/19 04:12:39;;;;;;;10.93;3.45;;;3.30;99.90;;;;;;5104597;28;20046;-72
2022/03/19 04:15:06;;;;;;;11.85;3.35;;;3.20;99.90;;;;;;5102445;27;20078;-71
2022/03/19 04:17:32;;;;;;;9.63;3.00;;;3.20;99.90;;;;;;5099108;28;20046;-72
2022/03/19 04:19:58;;;;;;;10.88;3.47;;;3.20;99.90;;;;;;5101318;27;20043;-72
2022/03/19 04:22:24;;;;;;;11.48;3.15;;;3.10;99.90;;;;;;5103240;28;20039;-72
2022/03/19 04:24:49;;;;;;;16.83;3.13;;;3.00;99.90;;;;;;5102987;27;20093;-71
2022/03/19 04:27:15;;;;;;;16.30;3.38;;;3.10;99.90;;;;;;5118910;27;20499;-71
2022/03/19 04:29:41;;;;;;;16.85;3.67;;;3.10;99.90;;;;;;5104485;27;20051;-71
2022/03/19 04:32:08;;;;;;;14.27;3.42;;;3.00;99.90;;;;;;5104055;27;20133;-71
2022/03/19 04:34:34;;;;;;;16.23;4.28;;;3.00;99.90;;;;;;5101222;27;20074;-72
2022/03/19 04:36:59;;;;;;;15.45;3.90;;;3.00;99.90;;;;;;5101397;28;20127;-72
2022/03/19 04:39:25;;;;;;;16.42;4.00;;;3.00;99.90;;;;;;5102423;28;20134;-72
2022/03/19 04:41:51;;;;;;;15.73;4.28;;;3.00;99.90;;;;;;5104215;27;20034;-72
2022/03/19 04:44:16;;;;;;;21.83;4.65;;;3.10;99.90;;;;;;5102341;28;20028;-71
2022/03/19 04:46:42;;;;;;;16.25;3.53;;;3.00;99.90;;;;;;5100566;27;20074;-71
2022/03/19 04:49:09;;;;;;;16.85;4.28;;;3.00;99.90;;;;;;5099135;28;20493;-72
2022/03/19 04:51:37;;;;;;;27.15;4.20;;;2.90;99.90;;;;;;5130192;27;20043;-72
2022/03/19 04:54:03;;;;;;;20.83;4.68;;;3.00;99.90;;;;;;5096309;28;20043;-71
2022/03/19 04:56:30;;;;;;;13.90;3.38;;;3.00;99.90;;;;;;5103620;28;20458;-71
2022/03/19 04:58:57;;;;;;;19.70;4.20;;;2.90;99.90;;;;;;5086387;28;20482;-72
2022/03/19 05:01:27;;;;;;;12.75;3.47;;;3.00;99.90;;;;;;5101779;28;20078;-72
2022/03/19 05:03:53;;;;;;;12.85;3.88;;;3.00;99.90;;;;;;5102226;28;20043;-72
2022/03/19 05:06:19;;;;;;;17.58;4.40;;;2.90;99.90;;;;;;5118518;27;20486;-72
2022/03/19 05:08:45;;;;;;;23.67;5.18;;;2.90;99.90;;;;;;5100968;28;20075;-72
2022/03/19 05:11:13;;;;;;;19.35;5.22;;;2.90;99.90;;;;;;5102456;28;20034;-71
2022/03/19 05:13:44;;;;;;;16.80;5.15;;;3.00;99.90;;;;;;5102608;28;20039;-71
2022/03/19 05:16:14;;;;;;;13.95;4.32;;;3.00;99.90;;;;;;5103617;28;20494;-71
2022/03/19 05:18:40;;;;;;;13.48;4.00;;;2.90;99.90;;;;;;5104091;27;20027;-72
2022/03/19 05:21:05;;;;;;;14.50;4.18;;;2.90;99.90;;;;;;5101115;28;20092;-71
2022/03/19 05:23:31;;;;;;;15.60;3.95;;;2.90;99.90;;;;;;5099374;28;20534;-72
2022/03/19 05:25:58;;;;;;;12.07;3.38;;;2.80;99.90;;;;;;5100262;28;20055;-72
2022/03/19 05:28:24;;;;;;;17.83;4.30;;;2.90;99.90;;;;;;5130155;27;20505;-72
2022/03/19 05:30:50;;;;;;;14.38;3.97;;;2.90;99.90;;;;;;5103645;27;20043;-71
2022/03/19 05:33:16;;;;;;;16.77;4.35;;;2.80;99.90;;;;;;5106970;28;20035;-71
2022/03/19 05:35:43;;;;;;;18.67;4.50;;;2.80;99.90;;;;;;5107111;27;20036;-71
2022/03/19 05:38:08;;;;;;;20.65;4.18;;;2.80;99.90;;;;;;5106569;28;20055;-71
2022/03/19 05:40:34;;;;;;;17.02;4.38;;;2.90;99.90;;;;;;5105151;28;20501;-71
2022/03/19 05:43:00;;;;;;;19.52;4.28;;;2.90;99.90;;;;;;5104071;27;20541;-71
2022/03/19 05:45:26;;;;;;;15.98;3.42;;;2.90;99.90;;;;;;5103645;28;20181;-72
2022/03/19 05:47:51;;;;;;;18.88;4.10;;;2.90;99.90;;;;;;5106363;27;20556;-72
2022/03/19 05:50:18;;;;;;;16.40;5.10;;;2.90;99.90;;;;;;5102338;27;20040;-72
2022/03/19 05:52:46;;;;;;;14.68;3.75;;;3.00;99.90;;;;;;5104925;27;20106;-72
2022/03/19 05:55:13;;;;;;;12.88;3.95;;;3.10;99.90;;;;;;5100356;27;20066;-72
2022/03/19 05:57:40;;;;;;;10.93;3.53;;;3.20;99.90;;;;;;5103883;28;20084;-72
2022/03/19 06:00:08;;;;;;;14.90;3.22;;;3.30;99.90;;;;;;5104964;27;20064;-71
2022/03/19 06:02:41;;;;;;;17.90;5.07;;;3.50;99.90;;;;;;5107785;27;20036;-71
2022/03/19 06:05:08;;;;;;;16.88;4.53;;;3.80;99.90;;;;;;5108544;27;20032;-71
2022/03/19 06:07:33;;;;;;;14.48;4.28;;;3.90;99.90;;;;;;5109986;27;20043;-71
2022/03/19 06:09:59;;;;;;;17.25;3.38;;;4.00;99.90;;;;;;5109128;27;20514;-71
2022/03/19 06:12:25;;;;;;;18.52;3.85;;;4.10;99.90;;;;;;5106223;27;20038;-71
2022/03/19 06:14:53;;;;;;;16.67;3.78;;;4.20;99.90;;;;;;5102775;27;20044;-71
2022/03/19 06:17:22;;;;;;;10.35;2.80;;;4.40;99.90;;;;;;5105427;27;20027;-71
2022/03/19 06:19:47;;;;;;;19.92;4.32;;;5.00;99.90;;;;;;5107813;27;20632;-71
2022/03/19 06:22:13;;;;;;;16.02;3.70;;;5.70;99.90;;;;;;5099582;27;20132;-71
2022/03/19 06:24:39;;;;;;;12.52;3.00;;;6.40;99.90;;;;;;5104801;27;20489;-71
2022/03/19 06:27:05;;;;;;;12.80;3.30;;;7.00;99.90;;;;;;5104504;27;20079;-71
2022/03/19 06:29:31;;;;;;;10.55;3.50;;;7.50;99.90;;;;;;5107533;27;20648;-71
2022/03/19 06:31:56;;;;;;;10.27;3.53;;;8.20;99.90;;;;;;5107196;27;20028;-71
2022/03/19 06:34:22;;;;;;;9.38;2.97;;;8.70;99.90;;;;;;5110045;27;20035;-71
2022/03/19 06:39:32;;;;;;;9.85;2.88;;;9.60;99.90;;;;;;5107116;27;20079;-71
2022/03/19 06:41:58;;;;;;;10.80;3.22;;;10.00;99.90;;;;;;5108029;27;20066;-71
2022/03/19 06:44:23;;;;;;;7.40;2.63;;;10.50;99.90;;;;;;5106744;27;20027;-71
2022/03/19 06:46:52;;;;;;;10.65;3.47;;;10.90;99.90;;;;;;5110609;27;20038;-71
2022/03/19 06:49:17;;;;;;;10.30;2.92;;;11.10;97.10;;;;;;5106555;27;20039;-71
2022/03/19 06:51:43;;;;;;;13.52;3.42;;;11.60;97.40;;;;;;5096863;28;20047;-71
2022/03/19 06:54:09;;;;;;;10.70;3.53;;;11.60;95.50;;;;;;5096033;28;20032;-71
2022/03/19 06:56:35;;;;;;;11.32;3.40;;;12.20;91.30;;;;;;5095263;28;20048;-71
2022/03/19 06:59:01;;;;;;;13.57;3.03;;;12.50;85.80;;;;;;5097687;28;20036;-71
2022/03/19 07:01:26;;;;;;;11.00;3.70;;;12.50;88.20;;;;;;5082094;28;20641;-71
2022/03/19 07:03:52;;;;;;;11.70;3.67;;;12.10;86.30;;;;;;5135965;27;20081;-71
2022/03/19 07:06:18;;;;;;;14.45;3.50;;;11.60;91.10;;;;;;5103319;28;20126;-71
2022/03/19 07:08:44;;;;;;;10.88;2.58;;;11.50;91.90;;;;;;5097129;28;20210;-71
2022/03/19 07:11:11;;;;;;;9.32;2.83;;;11.50;92.10;;;;;;5093582;28;20051;-71
2022/03/19 07:13:37;;;;;;;9.40;2.97;;;11.00;91.90;;;;;;5097764;28;20046;-71
2022/03/19 07:16:03;;;;;;;14.45;3.40;;;11.50;91.40;;;;;;5096722;28;20024;-71
2022/03/19 07:18:29;;;;;;;12.93;3.63;;;11.30;92.10;;;;;;5099283;27;20068;-71
2022/03/19 07:20:54;;;;;;;17.60;3.15;;;11.10;93.10;;;;;;5097893;28;20847;-71
2022/03/19 07:23:20;;;;;;;8.07;3.03;;;11.40;95.90;;;;;;5129391;27;20073;-71
2022/03/19 07:25:46;;;;;;;13.43;3.20;;;10.90;95.00;;;;;;5101227;28;20441;-71
2022/03/19 07:28:17;;;;;;;12.20;4.43;;;10.90;96.00;;;;;;5104717;27;20038;-71
2022/03/19 07:30:43;;;;;;;8.38;3.17;;;10.80;99.40;;;;;;5099427;28;20079;-71
2022/03/19 07:33:10;;;;;;;13.55;4.22;;;10.40;99.90;;;;;;5101976;27;20036;-71
2022/03/19 07:35:37;;;;;;;22.27;4.72;;;10.20;99.90;;;;;;5109489;27;20050;-71
2022/03/19 07:38:04;;;;;;;14.13;3.63;;;10.10;99.90;;;;;;5106614;27;20032;-71
2022/03/19 07:43:15;;;;;;;19.13;3.75;;;10.60;99.90;;;;;;5096259;27;20059;-71
2022/03/19 07:45:41;;;;;;;17.33;3.92;;;10.00;99.90;;;;;;5100575;27;20487;-71
2022/03/19 07:48:08;;;;;;;11.50;3.60;;;10.00;99.90;;;;;;5101232;27;20174;-71
2022/03/19 07:50:34;;;;;;;15.25;3.55;;;10.00;99.90;;;;;;5104285;27;20085;-71
2022/03/19 07:53:00;;;;;;;9.75;3.00;;;9.70;99.90;;;;;;5100008;27;20127;-71
2022/03/19 07:55:26;;;;;;;15.02;4.30;;;9.30;99.90;;;;;;5102536;27;20070;-71
2022/03/19 07:57:52;;;;;;;12.50;3.28;;;9.50;99.90;;;;;;5095644;27;20078;-71
2022/03/19 08:00:18;;;;;;;10.98;3.03;;;9.90;99.90;;;;;;5097486;27;21817;-71
2022/03/19 08:02:44;;;;;;;18.50;4.13;;;10.10;99.90;;;;;;5097686;27;20031;-72
2022/03/19 08:05:11;;;;;;;12.82;3.78;;;9.70;99.90;;;;;;5097008;27;20043;-72
2022/03/19 08:07:38;;;;;;;14.50;3.92;;;9.30;99.90;;;;;;5098250;27;20465;-72
2022/03/19 08:10:08;;;;;;;10.98;3.63;;;8.90;99.90;;;;;;5090816;28;20065;-72
2022/03/19 08:12:35;;;;;;;14.77;3.75;;;8.70;99.90;;;;;;5099405;28;20055;-72
2022/03/19 08:15:06;;;;;;;13.27;3.60;;;8.60;99.90;;;;;;5126048;27;20047;-72
2022/03/19 08:17:32;;;;;;;13.40;3.40;;;8.50;99.90;;;;;;5128727;27;20151;-72
2022/03/19 08:19:59;;;;;;;14.05;3.08;;;8.60;99.90;;;;;;5100823;27;20085;-75
2022/03/19 08:22:27;;;;;;;11.25;3.65;;;8.00;99.90;;;;;;5099933;27;20079;-76
2022/03/19 08:24:53;;;;;;;17.00;3.53;;;8.40;99.90;;;;;;5097132;27;20490;-78
2022/03/19 08:27:20;;;;;;;15.45;2.92;;;8.40;99.90;;;;;;5099113;27;20053;-77
2022/03/19 08:29:46;;;;;;;16.33;3.17;;;8.50;99.90;;;;;;5099496;28;20421;-77
2022/03/19 08:32:12;;;;;;;12.23;3.30;;;8.50;99.90;;;;;;5101414;28;20028;-78
2022/03/19 08:34:37;;;;;;;12.48;3.17;;;8.50;99.90;;;;;;5098417;28;20482;-77
2022/03/19 08:37:04;;;;;;;13.05;3.10;;;8.50;99.90;;;;;;5095860;28;20028;-80
2022/03/19 08:42:14;;;;;;;9.65;2.78;;;8.60;99.90;;;;;;5099772;28;20044;-74
2022/03/19 08:44:40;;;;;;;16.02;3.25;;;8.60;99.90;;;;;;5099335;28;21581;-75
2022/03/19 08:47:05;;;;;;;13.88;3.08;;;8.70;99.90;;;;;;5087279;28;20044;-78
2022/03/19 08:49:31;;;;;;;16.40;3.70;;;8.90;99.90;;;;;;5086185;28;20758;-74
2022/03/19 08:51:57;;;;;;;13.07;3.40;;;8.90;99.90;;;;;;5091884;28;20103;-75
2022/03/19 08:54:22;;;;;;;11.50;3.10;;;9.10;99.90;;;;;;5102182;28;20032;-75
2022/03/19 08:56:50;;;;;;;16.02;3.15;;;9.20;99.90;;;;;;5100568;28;20088;-75
2022/03/19 08:59:16;;;;;;;9.73;2.38;;;9.40;99.90;;;;;;5102177;27;20077;-76
2022/03/19 09:01:43;;;;;;;12.93;2.47;;;9.40;99.90;;;;;;5101434;28;20040;-76
2022/03/19 09:04:10;;;;;;;9.35;2.10;;;9.40;99.90;;;;;;5127171;27;20629;-76
2022/03/19 09:06:36;;;;;;;12.18;3.20;;;9.40;99.90;;;;;;5099439;28;20063;-80
2022/03/19 09:09:03;;;;;;;9.57;2.30;;;9.30;99.90;;;;;;5101947;28;20050;-79
2022/03/19 09:11:31;;;;;;;13.35;2.53;;;9.40;99.90;;;;;;5103009;28;20044;-73
2022/03/19 09:13:57;;;;;;;14.45;3.08;;;9.40;99.90;;;;;;5101976;28;20041;-73
2022/03/19 09:16:24;;;;;;;14.38;3.08;;;9.50;99.90;;;;;;5100612;28;20031;-74
2022/03/19 09:18:50;;;;;;;11.85;2.95;;;9.50;99.90;;;;;;5101531;28;20089;-73
2022/03/19 09:21:17;;;;;;;11.00;2.15;;;9.60;99.60;;;;;;5098948;28;20036;-73
2022/03/19 09:23:48;;;;;;;10.25;2.67;;;9.80;98.80;;;;;;5102492;28;20040;-74
2022/03/19 09:26:18;;;;;;;12.13;1.80;;;9.80;99.90;;;;;;5102335;28;20044;-73
2022/03/19 09:28:45;;;;;;;15.32;2.65;;;10.00;97.80;;;;;;5100026;28;20051;-74
2022/03/19 09:31:12;;;;;;;11.98;1.75;;;10.00;93.10;;;;;;5100796;28;20035;-71
2022/03/19 09:33:39;;;;;;;10.30;1.42;;;10.20;96.40;;;;;;5100365;28;20048;-72
2022/03/19 09:36:06;;;;;;;9.88;1.80;;;10.40;87.80;;;;;;5099860;28;20032;-71
2022/03/19 09:38:32;;;;;;;6.95;1.30;;;10.20;91.80;;;;;;5102781;28;20036;-71
2022/03/19 09:40:58;;;;;;;7.65;1.90;;;10.30;87.70;;;;;;5103545;28;20101;-72
2022/03/19 09:43:26;;;;;;;10.82;2.08;;;10.30;81.70;;;;;;5102660;28;20043;-70
2022/03/19 09:45:53;;;;;;;14.02;2.00;;;10.30;83.40;;;;;;5102428;28;20039;-68
2022/03/19 09:48:19;;;;;;;7.43;2.13;;;10.20;78.20;;;;;;5103012;28;20089;-69
2022/03/19 09:50:48;;;;;;;6.68;1.48;;;10.30;78.70;;;;;;5103029;28;20047;-73
2022/03/19 09:53:17;;;;;;;10.55;2.25;;;10.30;77.90;;;;;;5101593;28;20060;-71
2022/03/19 09:55:43;;;;;;;12.32;2.70;;;10.50;88.80;;;;;;5102541;27;20134;-71
2022/03/19 09:58:09;;;;;;;14.82;2.83;;;10.60;83.60;;;;;;5101555;28;20281;-71
2022/03/19 10:00:36;;;;;;;8.20;1.67;;;10.70;81.00;;;;;;5081481;28;20207;-71
2022/03/19 10:03:06;;;;;;;9.75;1.88;;;10.70;82.00;;;;;;5102011;28;20112;-71
2022/03/19 10:08:37;;;;;;;12.80;2.17;;;11.00;78.40;;;;;;5103236;28;20401;-72
2022/03/19 10:11:11;;;;;;;9.55;2.15;;;11.00;76.30;;;;;;5103741;28;20032;-72
2022/03/19 10:13:45;;;;;;;11.20;1.90;;;11.00;76.50;;;;;;5102712;28;20039;-71
2022/03/19 10:16:24;;;;;;;10.27;2.17;;;11.10;78.50;;;;;;5128521;27;20134;-71
2022/03/19 10:18:55;;;;;;;6.28;1.92;;;11.20;77.30;;;;;;5103188;27;20048;-71
2022/03/19 10:21:21;;;;;;;6.20;1.10;;;11.20;72.50;;;;;;5102911;27;20093;-71
2022/03/19 10:23:47;;;;;;;9.05;1.50;;;11.10;68.80;;;;;;5105431;27;20066;-72
2022/03/19 10:26:26;;;;;;;10.07;1.50;;;11.20;71.20;;;;;;5098788;27;20066;-71
2022/03/19 10:29:02;;;;;;;8.02;2.33;;;11.10;69.90;;;;;;5097928;27;20112;-71
2022/03/19 10:31:46;;;;;;;8.25;2.47;;;11.20;67.90;;;;;;5104101;27;20066;-71
2022/03/19 10:34:13;;;;;;;6.15;1.42;;;11.30;72.40;;;;;;5097253;27;20085;-70
2022/03/19 10:36:41;;;;;;;8.38;1.80;;;11.40;69.10;;;;;;5098160;27;20049;-70
2022/03/19 10:39:27;;;;;;;6.80;1.35;;;11.50;66.50;;;;;;5100764;27;20050;-70
2022/03/19 10:41:57;;;;;;;5.38;1.08;;;11.50;62.50;;;;;;5100172;27;20153;-71
2022/03/19 10:44:27;;;;;;;7.55;1.58;;;11.60;63.00;;;;;;5103698;27;20154;-70
2022/03/19 10:47:02;;;;;;;7.18;1.77;;;11.60;64.60;;;;;;5121550;27;20055;-70
2022/03/19 10:49:30;;;;;;;9.27;1.90;;;11.70;64.20;;;;;;5098586;27;20042;-70
2022/03/19 10:51:58;;;;;;;7.57;1.70;;;11.90;66.20;;;;;;5124631;27;20481;-68
2022/03/19 10:54:24;;;;;;;9.75;1.60;;;11.90;62.60;;;;;;5102845;27;20039;-69
2022/03/19 10:56:52;;;;;;;8.02;1.50;;;11.80;63.80;;;;;;5104783;27;20083;-70
2022/03/19 10:59:18;;;;;;;8.15;1.63;;;12.00;66.80;;;;;;5100054;27;20046;-69
2022/03/19 11:01:44;;;;;;;6.95;1.35;;;12.00;66.80;;;;;;5100807;27;20048;-68
2022/03/19 11:04:11;;;;;;;5.10;1.52;;;12.10;64.60;;;;;;5104661;27;20736;-69
2022/03/19 11:06:39;;;;;;;6.43;1.48;;;12.20;62.90;;;;;;5100026;27;20044;-69
2022/03/19 11:09:09;;;;;;;11.45;1.65;;;12.20;62.50;;;;;;5100692;27;20490;-69
2022/03/19 11:12:00;;;;;;;5.53;1.30;;;12.10;64.00;;;;;;5097811;27;20035;-69
2022/03/19 11:14:30;;;;;;;7.45;1.20;;;12.20;60.10;;;;;;5056298;27;20483;-72
2022/03/19 11:17:28;;;;;;;4.15;1.02;;;12.10;60.60;;;;;;5101199;27;20047;-71
2022/03/19 11:20:00;;;;;;;17.25;1.70;;;12.30;57.80;;;;;;5100600;27;20043;-71
2022/03/19 11:22:27;;;;;;;5.95;0.98;;;12.10;57.40;;;;;;5093049;27;20096;-72
2022/03/19 11:25:08;;;;;;;5.07;1.00;;;12.20;58.40;;;;;;5099840;27;20062;-72
2022/03/19 11:27:41;;;;;;;6.15;1.33;;;12.10;55.90;;;;;;5125210;27;20050;-71
2022/03/19 11:30:21;;;;;;;4.28;1.20;;;12.30;58.90;;;;;;5101645;27;20035;-71
2022/03/19 11:33:05;;;;;;;4.82;0.95;;;12.40;59.90;;;;;;5100942;27;20043;-71
2022/03/19 11:35:32;;;;;;;2.95;0.65;;;12.60;58.40;;;;;;5101260;27;20043;-72
2022/03/19 11:38:11;;;;;;;5.60;1.10;;;12.40;54.80;;;;;;5124253;27;20063;-72
2022/03/19 11:40:42;;;;;;;5.55;1.00;;;12.30;56.40;;;;;;5102215;27;20508;-72
2022/03/19 11:43:09;;;;;;;3.55;0.82;;;12.30;53.90;;;;;;5100069;27;20598;-72
2022/03/19 11:45:50;;;;;;;4.47;1.10;;;12.40;57.30;;;;;;5100788;27;20111;-71
2022/03/19 11:48:34;;;;;;;4.45;1.23;;;12.40;54.90;;;;;;5127267;27;20090;-71
2022/03/19 11:51:31;;;;;;;6.00;1.42;;;12.50;55.00;;;;;;5099138;27;20099;-72
2022/03/19 11:54:01;;;;;;;8.27;1.17;;;12.70;59.80;;;;;;5100636;27;20038;-72
2022/03/19 11:56:56;;;;;;;3.65;0.82;;;12.80;59.00;;;;;;5081536;27;20392;-71
2022/03/19 11:59:21;;;;;;;4.10;0.65;;;12.70;56.50;;;;;;5096606;27;20494;-71
2022/03/19 12:01:55;;;;;;;4.47;1.02;;;12.60;54.30;;;;;;5101869;27;20047;-71
2022/03/19 12:04:22;;;;;;;5.90;0.90;;;12.60;56.50;;;;;;5098198;27;20043;-72
2022/03/19 12:06:58;;;;;;;3.53;1.05;;;12.60;56.30;;;;;;5097284;27;20046;-71
2022/03/19 12:09:39;;;;;;;4.30;0.80;;;12.80;58.80;;;;;;5104226;27;20067;-71
2022/03/19 12:12:24;;;;;;;4.25;0.95;;;13.00;58.10;;;;;;5096100;27;20127;-72
2022/03/19 12:14:50;;;;;;;3.63;0.95;;;12.90;55.10;;;;;;5098139;27;20040;-71
2022/03/19 12:17:23;;;;;;;5.90;1.20;;;13.10;54.50;;;;;;5094105;28;20555;-71
2022/03/19 12:20:01;;;;;;;5.53;1.42;;;12.70;55.10;;;;;;5100007;27;20048;-71
2022/03/19 12:22:27;;;;;;;4.28;1.00;;;12.90;59.10;;;;;;5096503;27;20047;-71
2022/03/19 12:25:04;;;;;;;7.22;1.27;;;12.90;56.60;;;;;;5092259;27;20031;-71
2022/03/19 12:27:29;;;;;;;5.40;1.20;;;12.80;55.40;;;;;;5099118;27;20058;-72
2022/03/19 12:29:58;;;;;;;4.35;0.90;;;12.70;54.40;;;;;;5125605;27;20416;-71
2022/03/19 12:32:24;;;;;;;7.15;1.08;;;12.70;53.60;;;;;;5126063;27;20035;-72
2022/03/19 12:34:59;;;;;;;2.60;0.70;;;12.80;54.60;;;;;;5102337;27;20023;-72
2022/03/19 12:37:25;;;;;;;2.15;0.70;;;12.80;53.50;;;;;;5097975;27;20040;-71
2022/03/19 12:39:59;;;;;;;3.67;1.25;;;12.80;51.50;;;;;;5100733;28;20051;-71
2022/03/19 12:42:33;;;;;;;3.88;0.80;;;13.00;55.00;;;;;;5099556;27;20118;-70
2022/03/19 12:45:03;;;;;;;7.00;1.23;;;13.00;54.20;;;;;;5101747;28;20032;-71
2022/03/19 12:47:29;;;;;;;4.55;0.80;;;13.10;55.40;;;;;;5099436;28;20111;-71
2022/03/19 12:49:55;;;;;;;4.25;0.88;;;13.00;54.40;;;;;;5101513;28;20044;-70
2022/03/19 12:52:21;;;;;;;4.95;0.73;;;13.10;52.00;;;;;;5104393;28;20039;-70
2022/03/19 12:54:50;;;;;;;3.10;0.70;;;12.90;53.00;;;;;;5102412;27;20038;-70
2022/03/19 12:57:24;;;;;;;1.85;0.82;;;13.00;55.00;;;;;;5101146;27;20044;-70
2022/03/19 12:59:55;;;;;;;4.35;0.90;;;12.90;52.60;;;;;;5129740;27;20035;-71
2022/03/19 13:02:23;;;;;;;3.85;0.75;;;13.00;52.40;;;;;;5083271;28;20035;-70